الصفحة الرئيسية
صور الأقمار الصناعية توقعات الطقس لمدة 15 يوممناخالتوقعات البحرية إعصار برق مطارأسئلة وأجوبة النشرة الإخبارية حول
طقس : أوروبا أفريقيا أمريكا الشمالية أمريكا الجنوبية آسيا أستراليا-أوقيانوسيا آخرون
لغات جهة اتصال

مدينة همدان, إيران

دائرة عرض: 34-52-05N, خط طول: 048-33-08E, ارتفاع: 1757 m


METAR: OIHH 311100Z 34004KT 9999 FEW040 35/07 Q1012
short-TAF: فقد
long-TAF: عفا عليها الزمن (59356 ساعات)

زمن: 15:56 (11:26 UTC)

مراقبة الطقس الحالي

تاريخ و وقت الإصدار 26 دقيقة قبل الساعة 11:00 UTC  
ريح 04 kt من الشمال/
درجة الحرارة 35°C
الرطوبة 18%
ضغط 1012 hPa
الرؤية 10 km أو أكثر
غيوم متفرقة على ارتفاع 4000 ft

تغيير وحدة
المعلومات الواردة في هذا الموقع يخضع إخلاء
طقس : أوروبا أفريقيا أمريكا الشمالية أمريكا الجنوبية آسيا أستراليا-أوقيانوسيا آخرون
صور الأقمار الصناعية توقعات الطقس لمدة 15 يوممناخالتوقعات البحرية إعصار برق مطارأسئلة وأجوبة لغات جهة اتصال النشرة الإخبارية حول